Time;durP1;ratioP1;P1;durP2;ratioP2;P2;SDS_P1;SDS_P2;PMS_P1;PMS_P2;Temp;Humidity;BMP_temperature;BMP_pressure;BME280_temperature;BME280_humidity;BME280_pressure;Samples;Min_cycle;Max_cycle;Signal;HPM_P1;HPM_P2
2021/03/01 00:01:31;;;;;;;63.25;35.90;;;5.70;99.90;;;;;;4158648;28;20600;-70
2021/03/01 00:03:33;;;;;;;66.25;35.08;;;5.70;99.90;;;;;;4159822;28;20109;-70
2021/03/01 00:05:34;;;;;;;65.43;36.25;;;5.70;99.90;;;;;;4160567;28;20068;-70
2021/03/01 00:07:35;;;;;;;67.43;36.05;;;5.70;99.90;;;;;;4164479;28;20025;-70
2021/03/01 00:09:35;;;;;;;61.45;34.10;;;5.70;99.90;;;;;;4160895;28;20030;-70
2021/03/01 00:11:36;;;;;;;62.67;36.05;;;5.70;99.90;;;;;;4160220;28;20056;-70
2021/03/01 00:13:36;;;;;;;59.45;32.38;;;5.70;99.90;;;;;;4160046;28;20059;-70
2021/03/01 00:15:37;;;;;;;65.70;35.30;;;5.80;99.90;;;;;;4157465;28;20025;-70
2021/03/01 00:17:39;;;;;;;61.50;34.42;;;5.70;99.90;;;;;;4158631;28;20094;-70
2021/03/01 00:19:39;;;;;;;78.88;39.10;;;5.80;99.90;;;;;;4158584;28;20107;-70
2021/03/01 00:21:40;;;;;;;64.90;35.38;;;5.70;99.90;;;;;;4155224;28;20041;-70
2021/03/01 00:23:41;;;;;;;72.40;37.65;;;5.70;99.90;;;;;;4160217;28;20475;-70
2021/03/01 00:25:42;;;;;;;68.35;36.78;;;5.80;99.90;;;;;;4160036;28;20666;-70
2021/03/01 00:27:42;;;;;;;63.80;34.55;;;5.80;99.90;;;;;;4160126;28;20091;-70
2021/03/01 00:29:43;;;;;;;66.45;34.83;;;5.90;99.90;;;;;;4160092;28;20720;-70
2021/03/01 00:31:43;;;;;;;66.75;36.33;;;5.90;99.90;;;;;;4159603;28;20037;-70
2021/03/01 00:33:44;;;;;;;74.40;37.47;;;5.90;99.90;;;;;;4158292;28;20036;-70
2021/03/01 00:35:44;;;;;;;72.57;37.10;;;5.80;99.90;;;;;;4159693;28;20030;-70
2021/03/01 00:37:45;;;;;;;82.43;40.70;;;5.90;99.90;;;;;;4159171;28;20029;-70
2021/03/01 00:39:46;;;;;;;84.50;42.22;;;5.90;99.90;;;;;;4160319;28;20104;-70
2021/03/01 00:41:47;;;;;;;79.80;41.55;;;5.90;99.90;;;;;;4161232;28;20580;-70
2021/03/01 00:43:47;;;;;;;86.88;41.25;;;6.00;99.90;;;;;;4159195;28;20057;-70
2021/03/01 00:45:48;;;;;;;92.72;47.47;;;6.00;99.90;;;;;;4158271;28;20099;-70
2021/03/01 00:47:49;;;;;;;100.85;48.60;;;6.00;99.90;;;;;;4159807;28;20030;-70
2021/03/01 00:49:50;;;;;;;98.00;47.42;;;6.00;99.90;;;;;;4159537;28;20037;-70
2021/03/01 00:51:51;;;;;;;103.60;49.95;;;6.00;99.90;;;;;;4159190;28;20030;-70
2021/03/01 00:53:51;;;;;;;120.90;56.35;;;6.00;99.90;;;;;;4159440;28;20056;-70
2021/03/01 00:55:56;;;;;;;118.90;54.72;;;5.80;99.90;;;;;;4128597;28;20080;-70
2021/03/01 00:57:56;;;;;;;122.32;55.67;;;5.70;99.90;;;;;;4160852;28;20030;-70
2021/03/01 00:59:57;;;;;;;117.32;53.63;;;5.60;99.90;;;;;;4159340;28;20064;-70
2021/03/01 01:01:57;;;;;;;121.50;54.28;;;5.70;99.90;;;;;;4161219;28;20032;-70
2021/03/01 01:03:59;;;;;;;121.55;54.60;;;5.60;99.90;;;;;;4165292;28;20087;-70
2021/03/01 01:05:59;;;;;;;133.40;57.75;;;5.70;99.90;;;;;;4157751;28;20096;-70
2021/03/01 01:08:00;;;;;;;131.18;56.30;;;5.60;99.90;;;;;;4156099;28;20041;-70
2021/03/01 01:10:04;;;;;;;131.10;56.15;;;5.70;99.90;;;;;;4157731;28;20091;-70
2021/03/01 01:12:05;;;;;;;125.10;54.22;;;5.70;99.90;;;;;;4159099;28;20040;-70
2021/03/01 01:14:06;;;;;;;131.52;54.45;;;5.70;99.90;;;;;;4160032;28;20041;-70
2021/03/01 01:16:07;;;;;;;109.78;50.17;;;5.60;99.90;;;;;;4159604;28;20051;-70
2021/03/01 01:18:07;;;;;;;114.93;49.47;;;5.70;99.90;;;;;;4159435;28;20061;-70
2021/03/01 01:20:10;;;;;;;113.78;49.28;;;5.70;99.90;;;;;;4159325;28;20025;-70
2021/03/01 01:22:12;;;;;;;132.55;56.15;;;5.80;99.90;;;;;;4150354;28;20050;-70
2021/03/01 01:24:13;;;;;;;122.43;54.95;;;5.80;99.90;;;;;;4157684;28;20046;-70
2021/03/01 01:26:13;;;;;;;135.38;58.22;;;5.80;99.90;;;;;;4159858;28;20476;-70
2021/03/01 01:28:14;;;;;;;123.15;52.20;;;5.80;99.90;;;;;;4156464;28;20497;-70
2021/03/01 01:30:19;;;;;;;112.45;51.15;;;5.80;99.90;;;;;;4159038;28;20037;-70
2021/03/01 01:32:20;;;;;;;138.48;57.67;;;5.90;99.90;;;;;;4158071;28;20056;-70
2021/03/01 01:34:20;;;;;;;111.15;50.45;;;5.80;99.90;;;;;;4151735;28;20470;-70
2021/03/01 01:36:21;;;;;;;111.55;49.40;;;5.80;99.90;;;;;;4153369;28;20033;-70
2021/03/01 01:38:22;;;;;;;116.80;52.50;;;5.90;99.90;;;;;;4155960;28;20099;-70
2021/03/01 01:40:23;;;;;;;113.78;52.35;;;5.80;99.90;;;;;;4157213;28;20501;-70
2021/03/01 01:42:23;;;;;;;113.45;50.22;;;5.80;99.90;;;;;;4156833;28;20529;-70
2021/03/01 01:44:24;;;;;;;116.68;51.80;;;5.70;99.90;;;;;;4153029;28;20068;-70
2021/03/01 01:46:25;;;;;;;117.80;52.30;;;5.70;99.90;;;;;;4154360;28;20429;-70
2021/03/01 01:48:25;;;;;;;122.70;53.67;;;5.70;99.90;;;;;;4158976;28;20030;-70
2021/03/01 01:50:27;;;;;;;119.15;51.78;;;5.70;99.90;;;;;;4160673;28;20087;-70
2021/03/01 01:52:30;;;;;;;112.05;50.80;;;5.60;99.90;;;;;;4157654;28;20040;-70
2021/03/01 01:54:32;;;;;;;108.07;50.20;;;5.60;99.90;;;;;;4161324;28;20061;-70
2021/03/01 01:56:34;;;;;;;120.75;52.92;;;5.70;99.90;;;;;;4161410;28;20136;-70
2021/03/01 01:58:35;;;;;;;114.40;51.88;;;5.60;99.90;;;;;;4155829;28;20045;-70
2021/03/01 02:02:38;;;;;;;108.07;48.33;;;5.60;99.90;;;;;;4160920;28;20042;-70
2021/03/01 02:04:48;;;;;;;106.68;45.63;;;5.60;99.90;;;;;;4161584;28;20041;-69
2021/03/01 02:06:59;;;;;;;119.80;49.72;;;5.70;99.90;;;;;;4155150;28;20362;-70
2021/03/01 02:09:03;;;;;;;106.72;47.55;;;5.60;99.90;;;;;;4160488;28;20075;-70
2021/03/01 02:11:22;;;;;;;115.50;47.25;;;5.70;99.90;;;;;;4161982;28;20381;-70
2021/03/01 02:13:37;;;;;;;125.03;51.38;;;5.60;99.90;;;;;;4158921;28;20373;-70
2021/03/01 02:16:04;;;;;;;118.07;48.88;;;5.60;99.90;;;;;;4159895;28;20513;-70
2021/03/01 02:18:05;;;;;;;119.72;51.10;;;5.60;99.90;;;;;;4159835;28;20120;-70
2021/03/01 02:20:08;;;;;;;113.97;46.35;;;5.60;99.90;;;;;;4162363;28;20521;-70
2021/03/01 02:22:09;;;;;;;117.70;49.97;;;5.60;99.90;;;;;;4161579;28;20052;-70
2021/03/01 02:24:12;;;;;;;108.15;45.92;;;5.50;99.90;;;;;;4156543;28;20033;-70
2021/03/01 02:26:26;;;;;;;116.30;49.58;;;5.60;99.90;;;;;;4160367;28;20038;-70
2021/03/01 02:28:31;;;;;;;136.50;53.00;;;5.60;99.90;;;;;;4165159;28;20511;-70
2021/03/01 02:30:36;;;;;;;122.72;52.05;;;5.60;99.90;;;;;;4161985;28;20649;-70
2021/03/01 02:32:38;;;;;;;110.97;48.28;;;5.60;99.90;;;;;;4160146;28;20576;-70
2021/03/01 02:34:40;;;;;;;107.13;44.40;;;5.60;99.90;;;;;;4161591;28;20488;-70
2021/03/01 02:36:52;;;;;;;101.70;45.53;;;5.60;99.90;;;;;;4160753;28;20493;-70
2021/03/01 02:38:53;;;;;;;112.20;48.58;;;5.70;99.90;;;;;;4161178;28;20029;-70
2021/03/01 02:40:55;;;;;;;116.60;50.67;;;5.70;99.90;;;;;;4161217;28;20044;-69
2021/03/01 02:42:57;;;;;;;105.80;46.40;;;5.70;99.90;;;;;;4161306;28;20033;-70
2021/03/01 02:44:58;;;;;;;109.15;46.28;;;5.70;99.90;;;;;;4144976;28;20343;-70
2021/03/01 02:46:59;;;;;;;109.25;45.90;;;5.80;99.90;;;;;;4162019;28;20544;-70
2021/03/01 02:49:00;;;;;;;107.65;47.33;;;5.70;99.90;;;;;;4160208;28;20178;-70
2021/03/01 02:51:03;;;;;;;112.00;47.28;;;5.80;99.90;;;;;;4140480;28;20037;-70
2021/03/01 02:53:04;;;;;;;108.40;46.92;;;5.80;99.90;;;;;;4161971;28;20030;-70
2021/03/01 02:55:06;;;;;;;106.22;44.30;;;5.80;99.90;;;;;;4161346;28;20500;-70
2021/03/01 02:57:08;;;;;;;108.47;46.83;;;5.90;99.90;;;;;;4160685;28;20047;-70
2021/03/01 02:59:10;;;;;;;112.60;47.47;;;5.90;99.90;;;;;;4160248;28;20068;-70
2021/03/01 03:01:12;;;;;;;130.68;54.92;;;5.80;99.90;;;;;;4159691;28;20030;-70
2021/03/01 03:03:13;;;;;;;118.25;52.47;;;5.70;99.90;;;;;;4161143;28;20042;-70
2021/03/01 03:05:14;;;;;;;125.88;51.90;;;5.60;99.90;;;;;;4168137;28;20061;-70
2021/03/01 03:07:17;;;;;;;120.15;52.42;;;5.60;99.90;;;;;;4161539;28;20459;-70
2021/03/01 03:09:18;;;;;;;127.50;53.58;;;5.50;99.90;;;;;;4161351;28;20481;-70
2021/03/01 03:11:20;;;;;;;142.98;59.10;;;5.50;99.90;;;;;;4159847;28;20033;-70
2021/03/01 03:13:21;;;;;;;134.63;56.80;;;5.40;99.90;;;;;;4159970;28;20096;-70
2021/03/01 03:15:25;;;;;;;117.53;50.58;;;5.40;99.90;;;;;;4159325;28;20052;-70
2021/03/01 03:17:27;;;;;;;123.07;51.83;;;5.40;99.90;;;;;;4155010;28;20536;-70
2021/03/01 03:19:28;;;;;;;107.05;47.65;;;5.40;99.90;;;;;;4153727;28;20042;-70
2021/03/01 03:21:29;;;;;;;115.65;50.90;;;5.50;99.90;;;;;;4160874;28;20044;-70
2021/03/01 03:23:29;;;;;;;108.20;48.38;;;5.50;99.90;;;;;;4160474;28;20482;-70
2021/03/01 03:25:31;;;;;;;123.20;51.75;;;5.50;99.90;;;;;;4158329;28;20048;-70
2021/03/01 03:27:31;;;;;;;118.57;51.65;;;5.40;99.90;;;;;;4161237;28;20477;-70
2021/03/01 03:29:34;;;;;;;124.07;52.30;;;5.50;99.90;;;;;;4161295;28;20040;-70
2021/03/01 03:31:35;;;;;;;98.60;45.95;;;5.50;99.90;;;;;;4160196;28;20029;-70
2021/03/01 03:33:38;;;;;;;104.10;46.67;;;5.50;99.90;;;;;;4160684;28;20033;-70
2021/03/01 03:35:39;;;;;;;106.55;48.47;;;5.60;99.90;;;;;;4159452;28;20393;-70
2021/03/01 03:37:46;;;;;;;112.18;49.28;;;5.50;99.90;;;;;;4159029;28;20044;-70
2021/03/01 03:39:48;;;;;;;98.47;45.10;;;5.50;99.90;;;;;;4159091;28;20059;-70
2021/03/01 03:41:51;;;;;;;111.88;47.50;;;5.60;99.90;;;;;;4159347;28;20089;-70
2021/03/01 03:43:54;;;;;;;120.68;49.97;;;5.60;99.90;;;;;;4160260;28;20049;-70
2021/03/01 03:45:57;;;;;;;113.28;50.53;;;5.50;99.90;;;;;;4159173;28;20557;-70
2021/03/01 03:48:03;;;;;;;118.68;49.42;;;5.50;99.90;;;;;;4161112;28;20109;-70
2021/03/01 03:50:04;;;;;;;115.22;47.92;;;5.50;99.90;;;;;;4159724;28;20709;-70
2021/03/01 03:52:08;;;;;;;107.85;47.05;;;5.50;99.90;;;;;;4160377;28;20026;-70
2021/03/01 03:54:17;;;;;;;103.10;46.63;;;5.50;99.90;;;;;;4153138;28;24548;-70
2021/03/01 03:56:22;;;;;;;109.22;45.00;;;5.50;99.90;;;;;;4160114;28;20033;-70
2021/03/01 03:58:27;;;;;;;98.93;45.50;;;5.60;99.90;;;;;;4158261;28;20053;-70
2021/03/01 04:00:32;;;;;;;119.25;49.65;;;5.60;99.90;;;;;;4159034;28;20030;-70
2021/03/01 04:02:34;;;;;;;110.88;47.58;;;5.60;99.90;;;;;;4160147;28;20230;-70
2021/03/01 04:04:36;;;;;;;116.43;46.72;;;5.60;99.90;;;;;;4159460;28;20400;-70
2021/03/01 04:06:41;;;;;;;;;;;5.60;99.90;;;;;;4159482;28;20133;-69
2021/03/01 04:08:46;;;;;;;121.43;49.83;;;5.60;99.90;;;;;;4142807;28;19968;-70
2021/03/01 04:10:51;;;;;;;120.28;49.60;;;5.50;99.90;;;;;;4156117;28;20111;-70
2021/03/01 04:12:53;;;;;;;117.30;48.58;;;5.50;99.90;;;;;;4156961;28;20121;-70
2021/03/01 04:14:56;;;;;;;122.88;51.63;;;5.50;99.90;;;;;;4160072;28;20072;-70
2021/03/01 04:16:59;;;;;;;116.28;49.25;;;5.40;99.90;;;;;;4158587;28;20029;-70
2021/03/01 04:19:05;;;;;;;114.07;46.47;;;5.40;99.90;;;;;;4157969;28;20076;-70
2021/03/01 04:21:08;;;;;;;107.75;45.95;;;5.50;99.90;;;;;;4157323;28;20120;-70
2021/03/01 04:23:09;;;;;;;;;;;5.60;99.90;;;;;;4153921;28;20037;-70
2021/03/01 04:25:10;;;;;;;103.68;43.72;;;5.60;99.90;;;;;;4189066;28;20336;-70
2021/03/01 04:27:17;;;;;;;105.45;45.28;;;5.60;99.90;;;;;;4160305;28;20481;-70
2021/03/01 04:29:20;;;;;;;118.63;47.38;;;5.50;99.90;;;;;;4160007;28;20452;-70
2021/03/01 04:31:25;;;;;;;107.20;47.50;;;5.60;99.90;;;;;;4158647;28;20041;-69
2021/03/01 04:33:26;;;;;;;117.32;49.15;;;5.70;99.90;;;;;;4158696;28;20115;-70
2021/03/01 04:35:27;;;;;;;114.10;48.67;;;5.70;99.90;;;;;;4154150;28;20037;-70
2021/03/01 04:37:28;;;;;;;105.95;43.88;;;5.60;99.90;;;;;;4159740;28;20025;-70
2021/03/01 04:39:28;;;;;;;109.97;48.33;;;5.70;99.90;;;;;;4159398;28;20045;-70
2021/03/01 04:41:29;;;;;;;114.90;49.45;;;5.50;99.90;;;;;;4158032;28;20034;-70
2021/03/01 04:43:32;;;;;;;112.43;47.42;;;5.50;99.90;;;;;;4159977;28;20026;-70
2021/03/01 04:45:33;;;;;;;113.75;46.65;;;5.50;99.90;;;;;;4153654;28;20049;-70
2021/03/01 04:47:35;;;;;;;111.70;47.50;;;5.50;99.90;;;;;;4158390;28;20037;-70
2021/03/01 04:49:37;;;;;;;102.45;45.28;;;5.50;99.90;;;;;;4159697;28;20032;-70
2021/03/01 04:51:40;;;;;;;114.20;47.03;;;5.50;99.90;;;;;;4158468;28;20040;-70
2021/03/01 04:53:41;;;;;;;104.60;46.60;;;5.70;99.90;;;;;;4156378;28;20053;-70
2021/03/01 04:55:43;;;;;;;111.72;47.85;;;5.70;99.90;;;;;;4153444;28;20034;-70
2021/03/01 04:57:44;;;;;;;111.45;47.95;;;5.80;99.90;;;;;;4159442;28;20596;-70
2021/03/01 04:59:47;;;;;;;125.25;52.17;;;5.80;99.90;;;;;;4153890;28;20061;-70
2021/03/01 05:01:50;;;;;;;121.95;51.42;;;5.80;99.90;;;;;;4159089;28;20649;-70
2021/03/01 05:03:52;;;;;;;120.68;51.67;;;5.80;99.90;;;;;;4159644;28;20452;-70
2021/03/01 05:05:52;;;;;;;108.22;48.45;;;5.70;99.90;;;;;;4158505;28;20034;-70
2021/03/01 05:08:01;;;;;;;106.85;47.92;;;5.70;99.90;;;;;;4159808;28;20646;-70
2021/03/01 05:10:05;;;;;;;103.57;46.42;;;5.70;99.90;;;;;;4157296;28;20096;-70
2021/03/01 05:12:06;;;;;;;100.75;44.75;;;5.80;99.90;;;;;;4153417;28;20036;-70
2021/03/01 05:14:07;;;;;;;102.18;44.25;;;5.80;99.90;;;;;;4152661;28;20025;-70
2021/03/01 05:16:08;;;;;;;102.20;45.05;;;5.80;99.90;;;;;;4158100;28;20501;-70
2021/03/01 05:18:08;;;;;;;99.25;46.20;;;5.80;99.90;;;;;;4156859;28;20022;-70
2021/03/01 05:20:09;;;;;;;111.60;49.08;;;5.90;99.90;;;;;;4159474;28;20112;-70
2021/03/01 05:22:11;;;;;;;109.28;47.67;;;5.80;99.90;;;;;;4158093;28;20061;-70
2021/03/01 05:24:12;;;;;;;109.70;47.60;;;5.90;99.90;;;;;;4161242;28;20141;-70
2021/03/01 05:26:13;;;;;;;108.80;48.67;;;5.80;99.90;;;;;;4161424;28;20525;-70
2021/03/01 05:28:14;;;;;;;102.18;44.53;;;5.70;99.90;;;;;;4163148;28;20037;-70
2021/03/01 05:30:15;;;;;;;108.68;47.00;;;5.80;99.90;;;;;;4161409;28;20033;-70
2021/03/01 05:32:15;;;;;;;121.50;49.97;;;5.70;99.90;;;;;;4159800;28;20033;-70
2021/03/01 05:34:16;;;;;;;118.75;48.83;;;5.70;99.90;;;;;;4162631;28;20513;-70
2021/03/01 05:36:17;;;;;;;121.95;51.08;;;5.60;99.90;;;;;;4160929;28;20033;-70
2021/03/01 05:38:17;;;;;;;112.68;47.22;;;5.60;99.90;;;;;;4162336;28;20045;-70
2021/03/01 05:40:18;;;;;;;138.70;55.78;;;5.60;99.90;;;;;;4162858;28;20038;-70
2021/03/01 05:42:20;;;;;;;122.80;50.17;;;5.60;99.90;;;;;;4162237;28;20173;-70
2021/03/01 05:44:21;;;;;;;138.75;56.33;;;5.60;99.90;;;;;;4144169;28;20085;-70
2021/03/01 05:46:22;;;;;;;135.85;54.05;;;5.60;99.90;;;;;;4156712;28;20034;-70
2021/03/01 05:48:25;;;;;;;130.75;53.40;;;5.50;99.90;;;;;;4162575;28;20064;-70
2021/03/01 05:50:26;;;;;;;129.13;53.83;;;5.50;99.90;;;;;;4156154;28;20099;-70
2021/03/01 05:52:28;;;;;;;115.13;47.95;;;5.50;99.90;;;;;;4158163;28;20417;-70
2021/03/01 05:54:32;;;;;;;103.55;43.53;;;5.50;99.90;;;;;;4150843;28;20117;-70
2021/03/01 05:56:33;;;;;;;100.40;45.70;;;5.60;99.90;;;;;;4157703;28;20033;-70
2021/03/01 05:58:35;;;;;;;95.22;43.03;;;5.50;99.90;;;;;;4143993;28;20070;-70
2021/03/01 06:00:36;;;;;;;110.43;46.58;;;5.50;99.90;;;;;;4155521;28;20037;-70
2021/03/01 06:02:37;;;;;;;95.30;42.67;;;5.40;99.90;;;;;;4161257;28;20069;-69
2021/03/01 06:04:39;;;;;;;102.97;43.47;;;5.50;99.90;;;;;;4138204;28;20598;-69
2021/03/01 06:06:39;;;;;;;98.38;44.70;;;5.50;99.90;;;;;;4157551;28;20693;-69
2021/03/01 06:08:40;;;;;;;103.45;41.90;;;5.40;99.90;;;;;;4147683;28;20120;-69
2021/03/01 06:10:41;;;;;;;100.85;42.58;;;5.50;99.90;;;;;;4150415;28;20037;-69
2021/03/01 06:12:41;;;;;;;98.07;41.60;;;5.50;99.90;;;;;;4153779;28;20033;-69
2021/03/01 06:14:42;;;;;;;99.93;43.97;;;5.50;99.90;;;;;;4161808;28;20056;-69
2021/03/01 06:17:08;;;;;;;90.47;40.45;;;5.40;99.90;;;;;;4158648;28;20048;-69
2021/03/01 06:19:09;;;;;;;93.07;40.08;;;5.40;99.90;;;;;;4158483;28;20099;-69
2021/03/01 06:21:15;;;;;;;82.78;36.70;;;5.40;99.90;;;;;;4161654;28;20115;-69
2021/03/01 06:23:45;;;;;;;82.70;37.72;;;5.40;99.90;;;;;;4150273;28;20091;-69
2021/03/01 06:25:46;;;;;;;92.07;40.35;;;5.40;99.90;;;;;;4152463;28;20033;-70
2021/03/01 06:27:56;;;;;;;88.38;38.40;;;5.40;99.90;;;;;;4151956;28;20513;-69
2021/03/01 06:30:09;;;;;;;89.75;42.20;;;5.40;99.90;;;;;;4184859;28;20033;-69
2021/03/01 06:32:11;;;;;;;91.40;40.85;;;5.30;99.90;;;;;;4157335;28;20025;-69
2021/03/01 06:34:28;;;;;;;88.43;41.45;;;5.20;99.90;;;;;;4155487;28;20038;-69
2021/03/01 06:36:58;;;;;;;91.28;38.78;;;5.20;99.90;;;;;;4171859;28;20064;-69
2021/03/01 06:39:36;;;;;;;97.13;43.33;;;5.30;99.90;;;;;;4109526;28;20052;-69
2021/03/01 06:41:36;;;;;;;104.18;45.25;;;5.20;99.90;;;;;;4162674;28;20033;-69
2021/03/01 06:43:40;;;;;;;101.57;42.53;;;5.10;99.90;;;;;;4155411;28;20033;-69
2021/03/01 06:45:41;;;;;;;100.05;43.60;;;5.10;99.90;;;;;;4155636;28;20037;-69
2021/03/01 06:47:53;;;;;;;101.90;44.88;;;5.10;99.90;;;;;;4160728;28;20056;-70
2021/03/01 06:49:55;;;;;;;95.30;43.97;;;5.10;99.90;;;;;;4159128;28;20025;-70
2021/03/01 06:51:56;;;;;;;102.00;42.75;;;5.10;99.90;;;;;;4160311;28;20587;-69
2021/03/01 06:54:00;;;;;;;98.50;42.78;;;5.00;99.90;;;;;;4159822;28;20021;-69
2021/03/01 06:56:06;;;;;;;113.90;45.95;;;5.00;99.90;;;;;;4159546;28;20506;-69
2021/03/01 06:58:17;;;;;;;102.28;44.15;;;4.90;99.90;;;;;;4159003;28;20041;-69
2021/03/01 07:00:29;;;;;;;101.28;43.50;;;5.00;99.90;;;;;;4153641;28;20734;-69
2021/03/01 07:02:39;;;;;;;107.28;46.20;;;4.90;99.90;;;;;;4160451;28;20544;-70
2021/03/01 07:04:56;;;;;;;99.93;43.22;;;4.80;99.90;;;;;;4158889;28;20550;-70
2021/03/01 07:06:58;;;;;;;102.70;42.78;;;4.90;99.90;;;;;;4159731;28;20691;-70
2021/03/01 07:08:59;;;;;;;97.00;41.97;;;4.90;99.90;;;;;;4160604;28;20585;-69
2021/03/01 07:11:01;;;;;;;104.88;44.80;;;4.90;99.90;;;;;;4160128;28;20041;-70
2021/03/01 07:13:01;;;;;;;114.72;47.53;;;4.90;99.90;;;;;;4161029;28;20440;-69
2021/03/01 07:15:03;;;;;;;106.88;45.40;;;4.90;99.90;;;;;;4160419;28;20038;-70
2021/03/01 07:17:04;;;;;;;101.38;45.47;;;4.90;99.90;;;;;;4157588;28;20022;-70
2021/03/01 07:19:07;;;;;;;112.60;46.65;;;4.90;99.90;;;;;;4148079;28;20049;-70
2021/03/01 07:21:13;;;;;;;100.03;42.63;;;4.90;99.90;;;;;;4160520;28;20060;-70
2021/03/01 07:23:19;;;;;;;109.18;47.17;;;5.00;99.90;;;;;;4157208;28;20038;-70
2021/03/01 07:25:20;;;;;;;139.60;54.55;;;4.90;99.90;;;;;;4158828;28;20124;-70
2021/03/01 07:27:21;;;;;;;119.28;50.25;;;4.90;99.90;;;;;;4160759;28;20033;-69
2021/03/01 07:29:24;;;;;;;108.30;45.07;;;4.90;99.90;;;;;;4158714;28;20124;-69
2021/03/01 07:31:26;;;;;;;115.47;47.47;;;5.00;99.90;;;;;;4159142;28;20599;-70
2021/03/01 07:33:26;;;;;;;114.45;46.83;;;4.90;99.90;;;;;;4159970;28;20033;-70
2021/03/01 07:35:28;;;;;;;97.43;42.60;;;4.90;99.90;;;;;;4159514;28;20362;-70
2021/03/01 07:37:29;;;;;;;114.00;46.05;;;4.90;99.90;;;;;;4154737;28;20026;-69
2021/03/01 07:39:31;;;;;;;96.05;40.88;;;4.90;99.90;;;;;;4160640;28;20491;-69
2021/03/01 07:41:32;;;;;;;98.85;42.58;;;4.90;99.90;;;;;;4158616;28;20068;-69
2021/03/01 07:43:36;;;;;;;93.60;40.47;;;5.00;99.90;;;;;;4158643;28;20040;-70
2021/03/01 07:45:38;;;;;;;108.40;46.78;;;5.00;99.90;;;;;;4159860;28;20041;-70
2021/03/01 07:47:38;;;;;;;106.22;44.92;;;5.00;99.90;;;;;;4159913;28;20045;-69
2021/03/01 07:49:41;;;;;;;112.38;46.70;;;5.00;99.90;;;;;;4157975;28;20640;-70
2021/03/01 07:51:47;;;;;;;100.88;45.13;;;5.00;99.90;;;;;;4150780;28;20048;-70
2021/03/01 07:53:49;;;;;;;91.15;42.22;;;5.10;99.90;;;;;;4157216;28;20033;-70
2021/03/01 07:55:49;;;;;;;100.43;45.00;;;5.10;99.90;;;;;;4158882;28;20369;-69
2021/03/01 07:58:04;;;;;;;103.47;43.00;;;5.20;99.90;;;;;;4159816;28;20037;-69
2021/03/01 08:00:20;;;;;;;;;;;5.30;99.90;;;;;;4158397;28;20065;-70
2021/03/01 08:02:22;;;;;;;104.13;45.75;;;5.30;99.90;;;;;;4159407;28;19949;-69
2021/03/01 08:04:34;;;;;;;110.33;46.40;;;5.20;99.90;;;;;;4157338;28;20033;-70
2021/03/01 08:06:55;;;;;;;115.93;46.07;;;5.30;99.90;;;;;;4154057;28;20026;-70
2021/03/01 08:08:56;;;;;;;105.15;44.83;;;5.20;99.90;;;;;;4158827;28;20030;-70
2021/03/01 08:10:56;;;;;;;97.82;42.22;;;5.30;99.90;;;;;;4159025;28;20535;-70
2021/03/01 08:13:03;;;;;;;105.57;44.55;;;5.30;99.90;;;;;;4158817;28;20033;-69
2021/03/01 08:15:08;;;;;;;101.63;42.08;;;5.30;99.90;;;;;;4156445;28;20038;-69
2021/03/01 08:17:30;;;;;;;98.72;43.28;;;5.30;99.90;;;;;;4157354;28;20477;-69
2021/03/01 08:19:40;;;;;;;114.00;46.55;;;5.20;99.90;;;;;;4151757;28;20033;-69
2021/03/01 08:22:05;;;;;;;107.32;44.92;;;5.20;99.90;;;;;;4155677;28;20385;-70
2021/03/01 08:24:45;;;;;;;93.50;41.53;;;5.20;99.90;;;;;;4155974;28;20041;-70
2021/03/01 08:26:46;;;;;;;92.88;40.58;;;5.30;99.90;;;;;;4157191;28;20096;-70
2021/03/01 08:28:48;;;;;;;101.90;44.05;;;5.40;99.90;;;;;;4159208;28;20489;-70
2021/03/01 08:30:49;;;;;;;95.47;43.25;;;5.40;99.90;;;;;;4156755;28;20045;-70
2021/03/01 08:33:08;;;;;;;110.47;46.92;;;5.50;99.90;;;;;;4141123;28;20088;-70
2021/03/01 08:35:25;;;;;;;102.40;46.40;;;5.50;99.90;;;;;;4155530;28;20551;-70
2021/03/01 08:37:44;;;;;;;98.85;43.85;;;5.50;99.90;;;;;;4154887;28;20111;-70
2021/03/01 08:39:59;;;;;;;104.30;43.45;;;5.60;99.90;;;;;;4157345;28;20036;-70
2021/03/01 08:41:59;;;;;;;101.18;42.67;;;5.60;99.90;;;;;;4158320;28;20033;-70
2021/03/01 08:44:02;;;;;;;95.05;43.22;;;5.70;99.90;;;;;;4159250;28;20033;-70
2021/03/01 08:46:03;;;;;;;;;;;5.70;99.90;;;;;;4158609;28;20037;-69
2021/03/01 08:48:14;;;;;;;91.05;41.92;;;5.80;99.90;;;;;;4158501;28;19921;-69
2021/03/01 08:50:21;;;;;;;94.38;42.28;;;5.80;99.90;;;;;;4155296;28;20030;-70
2021/03/01 08:52:21;;;;;;;100.25;44.30;;;5.80;99.90;;;;;;4158460;28;20056;-70
2021/03/01 08:54:29;;;;;;;106.68;45.83;;;5.80;99.90;;;;;;4156166;28;20037;-70
2021/03/01 08:56:30;;;;;;;105.85;48.20;;;5.80;99.90;;;;;;4157350;28;20091;-70
2021/03/01 08:58:35;;;;;;;108.53;48.15;;;5.70;99.90;;;;;;4158981;28;20094;-70
2021/03/01 09:00:38;;;;;;;105.28;47.25;;;5.70;99.90;;;;;;4156737;28;20034;-70
2021/03/01 09:02:38;;;;;;;;;;;5.80;99.90;;;;;;4159182;28;20580;-69
2021/03/01 09:04:39;;;;;;;114.60;47.60;;;5.80;99.90;;;;;;4159006;28;20138;-70
2021/03/01 09:06:39;;;;;;;110.03;49.10;;;5.90;99.90;;;;;;4158310;28;20100;-70
2021/03/01 09:08:41;;;;;;;100.03;45.70;;;5.80;99.90;;;;;;4157626;28;20029;-70
2021/03/01 09:10:44;;;;;;;111.93;50.42;;;5.90;99.90;;;;;;4159049;28;20045;-70
2021/03/01 09:12:44;;;;;;;107.82;49.03;;;5.90;99.90;;;;;;4155717;28;20116;-70
2021/03/01 09:14:46;;;;;;;122.70;53.92;;;5.90;99.90;;;;;;4156490;28;20053;-70
2021/03/01 09:16:54;;;;;;;108.32;49.70;;;5.80;99.90;;;;;;4157145;28;20037;-70
2021/03/01 09:19:05;;;;;;;101.63;46.75;;;5.90;99.90;;;;;;4158470;28;20121;-70
2021/03/01 09:21:07;;;;;;;112.20;49.15;;;5.90;99.90;;;;;;4154868;28;20030;-70
2021/03/01 09:23:08;;;;;;;108.85;47.58;;;5.80;99.90;;;;;;4158292;28;20037;-70
2021/03/01 09:25:29;;;;;;;106.25;46.85;;;5.90;99.90;;;;;;4158291;28;20426;-70
2021/03/01 09:27:31;;;;;;;126.78;55.25;;;6.00;99.90;;;;;;4177415;28;20556;-70
2021/03/01 09:29:33;;;;;;;111.10;50.70;;;5.90;99.90;;;;;;4157282;28;20033;-70
2021/03/01 09:31:43;;;;;;;107.38;47.42;;;5.90;99.90;;;;;;4157510;28;20033;-69
2021/03/01 09:33:45;;;;;;;112.82;48.75;;;5.90;99.90;;;;;;4157983;28;20041;-70
2021/03/01 09:35:48;;;;;;;121.50;51.58;;;5.90;99.90;;;;;;4157330;28;20163;-70
2021/03/01 09:37:51;;;;;;;111.80;50.08;;;5.90;99.90;;;;;;4157478;28;20026;-70
2021/03/01 09:39:52;;;;;;;107.85;48.53;;;6.00;99.90;;;;;;4153129;28;20108;-70
2021/03/01 09:41:55;;;;;;;99.20;47.47;;;6.00;99.90;;;;;;4158557;28;20111;-70
2021/03/01 09:43:55;;;;;;;110.45;49.33;;;6.00;99.90;;;;;;4157020;28;20067;-70
2021/03/01 09:45:58;;;;;;;110.47;48.00;;;6.10;99.90;;;;;;4157142;28;20068;-70
2021/03/01 09:48:00;;;;;;;108.30;47.42;;;6.10;99.90;;;;;;4157966;28;20041;-70
2021/03/01 09:50:01;;;;;;;109.88;47.33;;;6.20;99.90;;;;;;4156665;28;20520;-70
2021/03/01 09:52:02;;;;;;;117.55;52.85;;;6.30;99.90;;;;;;4157677;28;20033;-70
2021/03/01 09:54:08;;;;;;;121.65;53.38;;;6.20;99.90;;;;;;4157924;28;20033;-70
2021/03/01 09:56:08;;;;;;;107.53;48.58;;;6.10;99.90;;;;;;4156389;28;20405;-70
2021/03/01 09:58:29;;;;;;;106.95;46.85;;;6.10;99.90;;;;;;4158080;28;20040;-70
2021/03/01 10:00:31;;;;;;;101.10;45.30;;;6.20;99.90;;;;;;4155235;28;20077;-70
2021/03/01 10:02:31;;;;;;;124.18;53.30;;;6.20;99.90;;;;;;4154949;28;20033;-70
2021/03/01 10:04:32;;;;;;;119.95;54.80;;;6.20;99.90;;;;;;4153340;28;20389;-70
2021/03/01 10:06:39;;;;;;;139.07;60.92;;;6.20;99.90;;;;;;4158645;28;20029;-70
2021/03/01 10:08:41;;;;;;;146.23;63.00;;;6.20;99.90;;;;;;4151408;28;20045;-70
2021/03/01 10:10:41;;;;;;;132.57;56.60;;;6.20;99.90;;;;;;4170270;28;20029;-73
2021/03/01 10:12:46;;;;;;;136.05;57.70;;;6.20;99.90;;;;;;4156515;28;20081;-73
2021/03/01 10:14:47;;;;;;;129.73;55.33;;;6.30;99.90;;;;;;4160193;28;20053;-73
2021/03/01 10:16:48;;;;;;;142.00;60.17;;;6.40;99.90;;;;;;4159431;28;20064;-73
2021/03/01 10:18:48;;;;;;;135.18;59.88;;;6.40;99.90;;;;;;4159464;28;20034;-73
2021/03/01 10:20:58;;;;;;;117.53;51.85;;;6.40;99.90;;;;;;4159738;28;20048;-73
2021/03/01 10:23:07;;;;;;;114.32;49.38;;;6.50;99.90;;;;;;4156781;28;20120;-74
2021/03/01 10:25:08;;;;;;;116.18;50.60;;;6.60;99.90;;;;;;4154282;28;20106;-73
2021/03/01 10:27:09;;;;;;;129.88;54.92;;;6.70;99.90;;;;;;4159578;28;20140;-73
2021/03/01 10:29:09;;;;;;;123.93;52.25;;;6.70;99.90;;;;;;4155961;28;20429;-73
2021/03/01 10:31:15;;;;;;;118.68;50.28;;;6.90;99.90;;;;;;4158378;28;20125;-73
2021/03/01 10:33:16;;;;;;;123.30;52.72;;;6.90;99.90;;;;;;4160038;28;20042;-73